GER24M LIMC-EKCH
Flight info
| Callsign | GER24M |
|---|---|
| Flight time | N/A |
| Altitude | 38000 |
| Route | SRN6SXOSKOR6S/35R OSKOR DCT NESTI DCT TAGIP DCT BRENO DCT KONIN DCT EXITI DCT EMBOX/N0442F390 DCT NOBRI/N0437F380 M726 ROSOK Q296 MONAK |
| Aircraft | A20N/M-SDE2E3FGHIRWXY/LB1 |
Departure
| Time | 2026-05-06 17:01 |
|---|---|
| Airport | Milan Malpensa International Airport (LIMC) |
Arrival
| Time | N/A |
|---|---|
| Airport | Copenhagen Kastrup Airport (EKCH) |
| Time | Latitude | Longitude | Altitude | Speed | Heading |
|---|---|---|---|---|---|
| 2026-05-06 17:01 | 45.72621 | 8.84026 | 6840 ft | 231 kts | 75° |
| 2026-05-06 17:01 | 45.72754 | 8.85580 | 7228 ft | 238 kts | 98° |
| 2026-05-06 17:01 | 45.71927 | 8.88502 | 8048 ft | 246 kts | 127° |
| 2026-05-06 17:01 | 45.70870 | 8.90442 | 8662 ft | 249 kts | 133° |
| 2026-05-06 17:02 | 45.70116 | 8.91724 | 9084 ft | 251 kts | 133° |
| 2026-05-06 17:02 | 45.69016 | 8.93639 | 9711 ft | 254 kts | 131° |
| 2026-05-06 17:02 | 45.67921 | 8.95647 | 10291 ft | 258 kts | 130° |
| 2026-05-06 17:02 | 45.66841 | 8.97714 | 10877 ft | 261 kts | 130° |
| 2026-05-06 17:03 | 45.65762 | 8.99825 | 11476 ft | 264 kts | 130° |
| 2026-05-06 17:03 | 45.64855 | 9.02135 | 12071 ft | 273 kts | 111° |
| 2026-05-06 17:03 | 45.64568 | 9.04859 | 12738 ft | 284 kts | 92° |
| 2026-05-06 17:03 | 45.64605 | 9.07740 | 13252 ft | 297 kts | 92° |
| 2026-05-06 17:04 | 45.64639 | 9.10777 | 13730 ft | 313 kts | 92° |
| 2026-05-06 17:04 | 45.64657 | 9.12863 | 14024 ft | 322 kts | 92° |
| 2026-05-06 17:04 | 45.64687 | 9.17230 | 14626 ft | 341 kts | 92° |
| 2026-05-06 17:04 | 45.64706 | 9.20679 | 15063 ft | 354 kts | 92° |
| 2026-05-06 17:05 | 45.64824 | 9.51203 | 19679 ft | 413 kts | 93° |
| 2026-05-06 17:06 | 45.64841 | 9.60259 | 20763 ft | 420 kts | 93° |
| 2026-05-06 17:06 | 45.64845 | 9.63023 | 21172 ft | 421 kts | 93° |
| 2026-05-06 17:06 | 45.64857 | 9.67226 | 21739 ft | 425 kts | 93° |
| 2026-05-06 17:07 | 45.64876 | 9.72860 | 22440 ft | 431 kts | 93° |
| 2026-05-06 17:07 | 45.64889 | 9.77170 | 22985 ft | 435 kts | 93° |
| 2026-05-06 17:07 | 45.64901 | 9.81511 | 23516 ft | 439 kts | 93° |
| 2026-05-06 17:07 | 45.64910 | 9.85895 | 23974 ft | 443 kts | 93° |
| 2026-05-06 17:08 | 45.64917 | 9.90308 | 24442 ft | 446 kts | 93° |
| 2026-05-06 17:08 | 45.64922 | 9.94744 | 24911 ft | 448 kts | 94° |
| 2026-05-06 17:08 | 45.64926 | 9.99208 | 25381 ft | 449 kts | 94° |
| 2026-05-06 17:08 | 45.64927 | 10.03672 | 25877 ft | 450 kts | 94° |
| 2026-05-06 17:09 | 45.67006 | 10.15780 | 27140 ft | 464 kts | 58° |
| 2026-05-06 17:09 | 45.70674 | 10.23125 | 28076 ft | 465 kts | 54° |
| 2026-05-06 17:09 | 45.77099 | 10.36026 | 29255 ft | 477 kts | 54° |
| 2026-05-06 17:09 | 45.79028 | 10.39913 | 29603 ft | 480 kts | 54° |
| 2026-05-06 17:10 | 45.82778 | 10.47482 | 30220 ft | 485 kts | 54° |
| 2026-05-06 17:10 | 45.87983 | 10.58028 | 31012 ft | 492 kts | 55° |
| 2026-05-06 17:10 | 46.01855 | 10.74416 | 32669 ft | 493 kts | 21° |
| 2026-05-06 17:10 | 46.05629 | 10.76858 | 33062 ft | 493 kts | 21° |
| 2026-05-06 17:11 | 46.08760 | 10.78894 | 33400 ft | 494 kts | 21° |
| 2026-05-06 17:11 | 46.23304 | 10.88338 | 34831 ft | 488 kts | 21° |
| 2026-05-06 17:11 | 46.35467 | 10.96265 | 36021 ft | 482 kts | 21° |
| 2026-05-06 17:11 | 46.42865 | 11.01107 | 36787 ft | 476 kts | 22° |
| 2026-05-06 17:12 | 46.56190 | 11.09867 | 37668 ft | 473 kts | 22° |
| 2026-05-06 17:12 | 46.59203 | 11.11854 | 37858 ft | 473 kts | 22° |
| 2026-05-06 17:12 | 46.64196 | 11.15150 | 37862 ft | 479 kts | 22° |
| 2026-05-06 17:13 | 46.85578 | 11.29350 | 37840 ft | 478 kts | 22° |
| 2026-05-06 17:13 | 46.97531 | 11.36451 | 37822 ft | 472 kts | 9° |
| 2026-05-06 17:14 | 47.05080 | 11.37568 | 37798 ft | 468 kts | 355° |
| 2026-05-06 17:14 | 47.24053 | 11.37408 | 37807 ft | 469 kts | 355° |
| 2026-05-06 17:15 | 47.50093 | 11.37153 | 37787 ft | 473 kts | 356° |
| 2026-05-06 17:15 | 47.76366 | 11.36894 | 37844 ft | 471 kts | 356° |
| 2026-05-06 17:16 | 48.02565 | 11.37177 | 37824 ft | 471 kts | 358° |
| 2026-05-06 17:16 | 48.28514 | 11.37762 | 37842 ft | 473 kts | 358° |
| 2026-05-06 17:17 | 48.44361 | 11.38120 | 37830 ft | 475 kts | 358° |
| 2026-05-06 17:17 | 48.56459 | 11.38397 | 37888 ft | 479 kts | 358° |
| 2026-05-06 17:18 | 48.59765 | 11.38472 | 37824 ft | 482 kts | 358° |